Terminal Aerodrome Forecast
Issued by NWS Des Moines, IA

Current Version | Previous Version | Text Only | Print | Product List | Glossary On
Versions: 1 2 3 4 5 6 7 8 9 10 11 12 13
000
FTUS43 KDMX 241909 AAA
TAFALO
TAF AMD
KALO 241909Z 2419/2518 26016G25KT P6SM FEW120
     FM242100 31013KT P6SM SCT120=

USA.gov is the U.S. government's official web portal to all federal, state and local government web resources and services.